Lebanon, OR

11:48 AM PST on December 05, 2016 (GMT -0800)
Near Downtown - Grant | | Change Station

Elev 354 ft 44.54 °N, 122.90 °W | Updated 15 seconds ago

Light Rain
Light Rain
40.3 °F
Feels Like 37 °F
N
4.5
Wind Variable Wind from South
Gusts 4.5 mph

Today
High -- | Low -- °F
--% Chance of Precip.
Yesterday
High -- | Low -- °F
Precip. -- in
Pressure 30.14 in
Visibility 10.0 miles
Clouds Mostly Cloudy 1000 ft
Mostly Cloudy 2700 ft
Overcast 4300 ft
Windchill 37 °F
Dew Point 39 °F
Humidity 96%
Rainfall 0.00 in
Snow Depth Not available.
7:33 AM 4:31 PM
Waxing Crescent, 34% visible
METAR KSLE 051856Z COR 19012KT 10SM -RA BKN010 BKN027 OVC043 03/02 A3013 RMK AO2 SNB15E20 SLP205 P0002 T00330017
Pressure 30.14 in
Visibility 10.0 miles
Clouds Mostly Cloudy 1000 ft
Mostly Cloudy 2700 ft
Overcast 4300 ft
Windchill 37 °F
Dew Point 39 °F
Humidity 96%
Rainfall 0.00 in
Snow Depth Not available.
7:33 AM 4:31 PM
Waxing Crescent, 34% visible
METAR KSLE 051856Z COR 19012KT 10SM -RA BKN010 BKN027 OVC043 03/02 A3013 RMK AO2 SNB15E20 SLP205 P0002 T00330017

10-Day Weather Forecast

Almanac

Astronomy

Dec. 05, 2016 Rise Set
Actual Time
Civil Twilight
Nautical Twilight
Astronomical Twilight
Moon
Length of Visible Light
Length of Day
Tomorrow will be .
, % of the Moon is Illuminated

Today's Extremes

State Highs State Lows

Community

WunderPhotos

Upload Photos

1,955,852 photos uploaded!

WunderBlog® & News

Nearby

Air Quality

  Air Quality AQ Index Pollutant
Not available.

Snow Depth

Station Depth Elevation

Earthquake Activity

City Distance Mag. Time & Date
Minimum magnitude displayed is 2.5.

Coastal Water Temperatures

Place Temperature

Stations

Nearby Weather Stations

Station Location Temp. Windchill Dew Point Humidity Wind Precip. Elev Updated Type
                   

Watches & Warnings

There are currently no watches in effect.